createdAt,value
2022-10-24T00:00:59.849Z,100089.78
2022-10-24T00:03:28.167Z,100088.81
2022-10-24T00:05:56.084Z,100094.41
2022-10-24T00:08:23.986Z,100086.38
2022-10-24T00:10:53.261Z,100083.81
2022-10-24T00:13:21.197Z,100093.31
2022-10-24T00:15:50.721Z,100077.81
2022-10-24T00:18:18.711Z,100089.56
2022-10-24T00:20:46.596Z,100082.94
2022-10-24T00:23:14.618Z,100094.41
2022-10-24T00:25:42.469Z,100089.25
2022-10-24T00:28:11.701Z,100097.72
2022-10-24T00:30:39.615Z,100102.00
2022-10-24T00:33:07.569Z,100102.63
2022-10-24T00:35:36.004Z,100088.28
2022-10-24T00:38:03.868Z,100103.59
2022-10-24T00:40:31.741Z,100110.47
2022-10-24T00:42:59.635Z,100111.09
2022-10-24T00:45:41.645Z,100104.34
2022-10-24T00:48:16.563Z,100099.22
2022-10-24T00:50:46.129Z,100097.94
2022-10-24T00:53:15.827Z,100093.97
2022-10-24T00:55:44.749Z,100093.66
2022-10-24T00:58:14.033Z,100094.84
2022-10-24T01:00:43.434Z,100088.72
2022-10-24T01:03:12.412Z,100065.50
2022-10-24T01:05:52.374Z,100071.69
2022-10-24T01:08:28.998Z,100057.44
2022-10-24T01:11:05.430Z,100087.09
2022-10-24T01:13:42.598Z,100088.63
2022-10-24T01:16:16.856Z,100096.94
2022-10-24T01:18:50.248Z,100091.16
2022-10-24T01:21:30.084Z,100093.63
2022-10-24T01:24:30.133Z,100100.16
2022-10-24T01:27:08.593Z,100092.69
2022-10-24T01:29:49.179Z,100070.81
2022-10-24T01:32:29.930Z,100091.50
2022-10-24T01:35:03.933Z,100075.44
2022-10-24T01:37:38.743Z,100059.38
2022-10-24T01:40:12.606Z,100061.31
2022-10-24T01:42:44.078Z,100066.53
2022-10-24T01:45:18.899Z,100066.34
2022-10-24T01:47:51.606Z,100060.31
2022-10-24T01:50:23.448Z,100040.72
2022-10-24T01:52:52.849Z,100051.97
2022-10-24T01:55:20.977Z,100049.31
2022-10-24T01:57:48.864Z,100053.81
2022-10-24T02:00:21.488Z,100050.59
2022-10-24T02:02:52.752Z,100054.34
2022-10-24T02:05:23.748Z,100058.31
2022-10-24T02:07:55.409Z,100053.59
2022-10-24T02:10:28.230Z,100044.41
2022-10-24T02:13:02.824Z,100052.72
2022-10-24T02:15:37.249Z,100042.25
2022-10-24T02:18:05.945Z,100045.88
2022-10-24T02:20:37.888Z,100028.88
2022-10-24T02:23:12.411Z,100025.09
2022-10-24T02:28:23.062Z,100005.72
2022-10-24T02:31:00.679Z,99995.31
2022-10-24T02:33:30.466Z,99991.25
2022-10-24T02:35:59.619Z,99999.41
2022-10-24T02:38:31.613Z,100010.09
2022-10-24T02:41:01.660Z,100016.31
2022-10-24T02:43:31.711Z,100020.34
2022-10-24T02:46:01.046Z,100006.31
2022-10-24T02:48:33.705Z,100008.13
2022-10-24T02:51:02.652Z,100012.63
2022-10-24T02:53:30.695Z,100004.25
2022-10-24T02:55:58.582Z,100007.47
2022-10-24T02:58:26.565Z,100001.56
2022-10-24T03:00:54.542Z,99997.16
2022-10-24T03:03:23.912Z,99986.25
2022-10-24T03:05:51.853Z,99975.97
2022-10-24T03:08:19.827Z,99989.03
2022-10-24T03:10:48.170Z,99991.72
2022-10-24T03:13:16.176Z,99997.25
2022-10-24T03:15:44.259Z,99993.56
2022-10-24T03:18:12.303Z,99993.88
2022-10-24T03:20:41.654Z,99988.75
2022-10-24T03:23:09.765Z,99981.69
2022-10-24T03:25:37.678Z,99973.13
2022-10-24T03:28:06.043Z,99977.00
2022-10-24T03:30:34.013Z,99974.53
2022-10-24T03:33:01.978Z,99982.03
2022-10-24T03:35:29.894Z,99974.53
2022-10-24T03:37:59.209Z,99971.53
2022-10-24T03:40:27.240Z,99963.06
2022-10-24T03:42:55.216Z,99983.84
2022-10-24T03:45:23.147Z,99985.56
2022-10-24T03:47:51.066Z,99980.31
2022-10-24T03:50:19.316Z,99981.91
2022-10-24T03:52:47.690Z,99995.41
2022-10-24T03:55:17.208Z,99997.59
2022-10-24T03:57:45.418Z,99996.63
2022-10-24T04:00:13.926Z,99989.88
2022-10-24T04:02:43.906Z,99996.56
2022-10-24T04:05:12.548Z,99997.53
2022-10-24T04:07:40.661Z,99983.69
2022-10-24T04:10:09.331Z,99988.97
2022-10-24T04:12:38.695Z,99992.72
2022-10-24T04:15:07.904Z,99991.66
2022-10-24T04:17:35.903Z,99993.47
2022-10-24T04:20:09.451Z,99982.63
2022-10-24T04:22:37.506Z,99984.13
2022-10-24T04:25:05.980Z,99999.34
2022-10-24T04:27:34.441Z,100001.91
2022-10-24T04:30:03.741Z,100001.06
2022-10-24T04:32:31.693Z,99980.59
2022-10-24T04:35:02.253Z,99984.88
2022-10-24T04:37:30.326Z,99990.00
2022-10-24T04:39:58.213Z,99984.13
2022-10-24T04:42:26.499Z,99987.97
2022-10-24T04:44:54.521Z,99984.97
2022-10-24T04:47:23.978Z,99985.28
2022-10-24T04:49:54.732Z,99993.53
2022-10-24T04:52:22.716Z,99988.22
2022-10-24T04:54:50.951Z,99996.56
2022-10-24T04:57:18.967Z,99989.16
2022-10-24T04:59:46.944Z,99994.19
2022-10-24T05:02:14.975Z,99987.31
2022-10-24T05:04:44.237Z,99999.09
2022-10-24T05:07:12.214Z,99992.69
2022-10-24T05:09:40.179Z,100003.38
2022-10-24T05:12:08.229Z,99990.06
2022-10-24T05:14:36.235Z,99986.72
2022-10-24T05:17:04.220Z,99984.78
2022-10-24T05:19:32.183Z,99991.09
2022-10-24T05:22:01.413Z,99983.06
2022-10-24T05:24:30.093Z,99972.47
2022-10-24T05:26:58.034Z,99967.53
2022-10-24T05:29:26.366Z,99951.22
2022-10-24T05:31:54.339Z,99966.31
2022-10-24T05:34:22.358Z,99968.28
2022-10-24T05:36:50.303Z,99960.66
2022-10-24T05:39:19.699Z,99957.22
2022-10-24T05:41:48.237Z,99967.81
2022-10-24T05:44:16.787Z,99966.84
2022-10-24T05:46:44.714Z,99962.31
2022-10-24T05:49:14.451Z,99964.56
2022-10-24T05:51:42.448Z,99965.59
2022-10-24T05:54:10.336Z,99967.56
2022-10-24T05:56:39.607Z,99980.78
2022-10-24T05:59:07.632Z,99975.16
2022-10-24T06:01:35.804Z,99963.34
2022-10-24T06:04:03.757Z,99977.63
2022-10-24T06:06:32.289Z,99973.84
2022-10-24T06:09:00.218Z,99990.53
2022-10-24T06:11:28.181Z,99979.34
2022-10-24T06:13:57.571Z,99979.09
2022-10-24T06:16:27.572Z,99986.41
2022-10-24T06:18:55.498Z,99980.31
2022-10-24T06:21:23.444Z,99973.06
2022-10-24T06:23:51.495Z,99968.88
2022-10-24T06:26:23.121Z,99974.41
2022-10-24T06:28:52.069Z,99976.59
2022-10-24T06:31:21.671Z,99970.75
2022-10-24T06:33:50.215Z,99972.47
2022-10-24T06:36:18.223Z,99974.69
2022-10-24T06:38:46.208Z,99972.16
2022-10-24T06:41:16.997Z,99987.63
2022-10-24T06:43:45.160Z,99983.38
2022-10-24T06:46:15.879Z,99979.97
2022-10-24T06:48:45.838Z,99991.41
2022-10-24T06:51:18.572Z,100006.69
2022-10-24T06:53:46.590Z,100002.91
2022-10-24T06:56:14.907Z,99999.84
2022-10-24T06:58:42.917Z,100005.13
2022-10-24T07:01:12.845Z,100004.03
2022-10-24T07:03:40.999Z,100009.31
2022-10-24T07:06:12.506Z,100011.16
2022-10-24T07:08:40.638Z,100008.34
2022-10-24T07:11:08.684Z,100018.41
2022-10-24T07:13:36.625Z,100016.13
2022-10-24T07:16:04.786Z,100015.00
2022-10-24T07:18:32.893Z,100008.94
2022-10-24T07:21:03.201Z,100007.09
2022-10-24T07:23:33.338Z,100011.75
2022-10-24T07:26:05.242Z,100008.69
2022-10-24T07:28:36.713Z,100022.72
2022-10-24T07:31:05.992Z,100029.03
2022-10-24T07:33:34.284Z,100016.31
2022-10-24T07:36:02.280Z,100023.00
2022-10-24T07:38:30.512Z,100022.78
2022-10-24T07:41:03.546Z,100010.47
2022-10-24T07:43:31.528Z,100030.78
2022-10-24T07:48:27.823Z,100033.19
2022-10-24T07:50:55.769Z,100036.56
2022-10-24T07:53:26.000Z,100030.31
2022-10-24T07:55:55.055Z,100027.31
2022-10-24T07:58:24.331Z,100008.84
2022-10-24T08:00:52.560Z,100024.75
2022-10-24T08:03:20.962Z,100023.06
2022-10-24T08:05:48.954Z,100018.38
2022-10-24T08:08:35.090Z,100010.97
2022-10-24T08:11:08.666Z,100025.63
2022-10-24T08:13:38.988Z,100031.16
2022-10-24T08:16:08.505Z,100025.06
2022-10-24T08:18:39.727Z,100029.59
2022-10-24T08:21:10.729Z,100024.41
2022-10-24T08:23:40.427Z,100015.31
2022-10-24T08:26:09.599Z,100009.81
2022-10-24T08:28:38.930Z,100018.59
2022-10-24T08:31:09.750Z,100013.28
2022-10-24T08:33:37.802Z,100008.53
2022-10-24T08:36:08.138Z,100012.59
2022-10-24T08:38:36.063Z,100016.25
2022-10-24T08:41:04.106Z,100015.56
2022-10-24T08:43:32.187Z,100010.78
2022-10-24T08:46:09.885Z,100011.41
2022-10-24T08:48:45.206Z,100015.00
2022-10-24T08:51:27.488Z,100016.97
2022-10-24T08:53:57.183Z,100008.25
2022-10-24T08:56:28.763Z,100027.19
2022-10-24T08:58:58.125Z,100016.25
2022-10-24T09:01:33.872Z,100014.41
2022-10-24T09:04:07.243Z,100018.59
2022-10-24T09:06:35.350Z,100012.50
2022-10-24T09:09:05.783Z,100003.97
2022-10-24T09:11:46.262Z,99998.78
2022-10-24T09:14:16.504Z,99993.22
2022-10-24T09:16:49.285Z,99991.53
2022-10-24T09:19:23.451Z,99990.59
2022-10-24T09:21:53.179Z,99985.13
2022-10-24T09:24:42.199Z,99999.25
2022-10-24T09:27:16.023Z,99994.28
2022-10-24T09:29:44.131Z,99997.03
2022-10-24T09:32:18.724Z,100001.81
2022-10-24T09:34:47.092Z,100004.53
2022-10-24T09:37:37.653Z,99996.25
2022-10-24T09:40:19.874Z,100013.63
2022-10-24T09:42:55.115Z,100019.53
2022-10-24T09:45:38.406Z,100010.06
2022-10-24T09:48:18.832Z,100031.19
2022-10-24T09:50:49.529Z,100014.38
2022-10-24T09:53:28.742Z,100008.09
2022-10-24T09:56:00.119Z,100009.53
2022-10-24T09:58:32.710Z,100013.94
2022-10-24T10:01:07.126Z,100011.50
2022-10-24T10:03:36.679Z,100030.38
2022-10-24T10:06:15.601Z,100025.53
2022-10-24T10:08:51.231Z,100017.00
2022-10-24T10:11:26.790Z,100008.59
2022-10-24T10:13:55.520Z,100018.91
2022-10-24T10:16:26.145Z,100011.31
2022-10-24T10:19:03.771Z,100027.88
2022-10-24T10:21:54.472Z,100030.56
2022-10-24T10:24:27.458Z,100034.38
2022-10-24T10:26:55.511Z,100020.19
2022-10-24T10:29:25.053Z,100028.91
2022-10-24T10:31:59.436Z,100033.03
2022-10-24T10:34:35.756Z,100039.25
2022-10-24T10:37:32.197Z,100037.28
2022-10-24T10:40:15.565Z,100036.16
2022-10-24T10:42:57.190Z,100037.28
2022-10-24T10:45:35.725Z,100035.75
2022-10-24T10:48:25.992Z,100046.28
2022-10-24T10:51:05.785Z,100025.47
2022-10-24T10:53:41.347Z,100043.09
2022-10-24T10:56:17.496Z,100055.47
2022-10-24T10:58:52.580Z,100053.09
2022-10-24T11:01:32.673Z,100048.03
2022-10-24T11:04:08.977Z,100060.97
2022-10-24T11:06:47.788Z,100054.78
2022-10-24T11:09:32.411Z,100063.66
2022-10-24T11:12:07.775Z,100056.88
2022-10-24T11:14:40.173Z,100063.63
2022-10-24T11:17:15.900Z,100060.50
2022-10-24T11:19:51.775Z,100046.53
2022-10-24T11:22:26.063Z,100060.19
2022-10-24T11:25:01.584Z,100052.75
2022-10-24T11:27:37.855Z,100053.88
2022-10-24T11:30:19.288Z,100066.47
2022-10-24T11:32:53.967Z,100050.84
2022-10-24T11:35:28.780Z,100049.38
2022-10-24T11:38:03.244Z,100059.94
2022-10-24T11:40:31.919Z,100059.03
2022-10-24T11:43:11.684Z,100063.63
2022-10-24T11:45:46.747Z,100058.78
2022-10-24T11:48:20.368Z,100059.06
2022-10-24T11:50:53.981Z,100062.56
2022-10-24T11:53:45.787Z,100057.09
2022-10-24T11:56:19.116Z,100057.53
2022-10-24T11:58:58.197Z,100058.97
2022-10-24T12:01:42.190Z,100063.94
2022-10-24T12:04:30.459Z,100060.00
2022-10-24T12:07:19.458Z,100065.16
2022-10-24T12:10:09.702Z,100059.16
2022-10-24T12:12:55.665Z,100060.28
2022-10-24T12:15:41.473Z,100067.53
2022-10-24T12:18:13.137Z,100062.41
2022-10-24T12:20:42.356Z,100072.38
2022-10-24T12:23:22.774Z,100069.09
2022-10-24T12:26:05.479Z,100061.38
2022-10-24T12:28:34.289Z,100060.28
2022-10-24T12:31:23.832Z,100051.22
2022-10-24T12:34:34.497Z,100056.31
2022-10-24T12:37:08.246Z,100069.09
2022-10-24T12:39:37.456Z,100071.31
2022-10-24T12:42:13.994Z,100066.09
2022-10-24T12:44:47.394Z,100074.75
2022-10-24T12:47:33.970Z,100081.03
2022-10-24T12:50:35.344Z,100074.66
2022-10-24T12:53:16.610Z,100079.06
2022-10-24T12:56:15.193Z,100088.91
2022-10-24T12:58:47.181Z,100088.19
2022-10-24T13:01:27.352Z,100090.75
2022-10-24T13:07:50.941Z,100090.47
2022-10-24T13:10:31.942Z,100078.53
2022-10-24T13:13:13.382Z,100093.03
2022-10-24T13:15:49.247Z,100090.47
2022-10-24T13:18:30.073Z,100105.00
2022-10-24T13:21:15.960Z,100101.97
2022-10-24T13:23:45.670Z,100090.59
2022-10-24T13:26:37.547Z,100090.84
2022-10-24T13:29:08.217Z,100092.50
2022-10-24T13:31:48.813Z,100089.47
2022-10-24T13:34:31.709Z,100093.44
2022-10-24T13:37:08.278Z,100096.59
2022-10-24T13:39:41.317Z,100097.41
2022-10-24T13:42:24.452Z,100097.44
2022-10-24T13:44:55.309Z,100091.31
2022-10-24T13:47:29.754Z,100098.94
2022-10-24T13:50:01.515Z,100108.34
2022-10-24T13:52:37.411Z,100097.09
2022-10-24T13:55:21.742Z,100093.13
2022-10-24T13:58:00.833Z,100097.25
2022-10-24T14:00:32.124Z,100095.00
2022-10-24T14:03:03.230Z,100094.00
2022-10-24T14:05:36.051Z,100088.88
2022-10-24T14:08:05.234Z,100082.78
2022-10-24T14:10:33.691Z,100083.91
2022-10-24T14:13:02.240Z,100085.25
2022-10-24T14:15:32.936Z,100083.91
2022-10-24T14:18:04.889Z,100079.78
2022-10-24T14:20:34.886Z,100091.56
2022-10-24T14:23:16.351Z,100076.34
2022-10-24T14:25:44.348Z,100081.09
2022-10-24T14:28:20.339Z,100091.34
2022-10-24T14:30:55.466Z,100067.31
2022-10-24T14:33:27.274Z,100073.09
2022-10-24T14:35:58.211Z,100085.88
2022-10-24T14:38:28.104Z,100091.88
2022-10-24T14:41:08.333Z,100094.44
2022-10-24T14:43:41.854Z,100071.94
2022-10-24T14:46:27.884Z,100099.25
2022-10-24T14:48:57.232Z,100094.69
2022-10-24T14:51:33.815Z,100091.13
2022-10-24T14:54:07.479Z,100095.97
2022-10-24T14:56:37.652Z,100087.59
2022-10-24T14:59:08.461Z,100082.75
2022-10-24T15:01:36.873Z,100085.72
2022-10-24T15:04:06.911Z,100085.69
2022-10-24T15:06:39.675Z,100080.47
2022-10-24T15:09:17.174Z,100081.88
2022-10-24T15:11:47.832Z,100075.63
2022-10-24T15:14:39.601Z,100072.09
2022-10-24T15:17:31.485Z,100078.47
2022-10-24T15:20:03.728Z,100082.72
2022-10-24T15:22:35.184Z,100083.50
2022-10-24T15:25:08.459Z,100083.94
2022-10-24T15:27:40.911Z,100089.78
2022-10-24T15:30:14.698Z,100092.00
2022-10-24T15:32:43.144Z,100095.13
2022-10-24T15:35:13.744Z,100105.53
2022-10-24T15:37:42.473Z,100087.44
2022-10-24T15:40:18.638Z,100115.69
2022-10-24T15:42:47.162Z,100110.41
2022-10-24T15:45:16.993Z,100119.06
2022-10-24T15:47:45.712Z,100119.34
2022-10-24T15:50:16.941Z,100135.84
2022-10-24T15:52:48.683Z,100132.16
2022-10-24T15:55:18.814Z,100119.00
2022-10-24T15:57:46.937Z,100128.00
2022-10-24T16:00:17.299Z,100134.38
2022-10-24T16:02:48.372Z,100136.16
2022-10-24T16:05:21.359Z,100121.69
2022-10-24T16:07:52.032Z,100120.53
2022-10-24T16:10:23.084Z,100130.56
2022-10-24T16:12:53.251Z,100147.69
2022-10-24T16:15:24.805Z,100151.16
2022-10-24T16:17:53.020Z,100158.25
2022-10-24T16:20:22.502Z,100156.28
2022-10-24T16:22:51.784Z,100146.28
2022-10-24T16:25:23.742Z,100156.66
2022-10-24T16:27:54.874Z,100168.53
2022-10-24T16:30:25.491Z,100151.78
2022-10-24T16:32:53.789Z,100152.00
2022-10-24T16:35:25.622Z,100160.81
2022-10-24T16:37:54.012Z,100161.09
2022-10-24T16:40:22.712Z,100134.28
2022-10-24T16:42:51.228Z,100171.94
2022-10-24T16:45:19.886Z,100165.72
2022-10-24T16:47:48.789Z,100165.34
2022-10-24T16:50:21.211Z,100176.38
2022-10-24T16:52:50.947Z,100171.47
2022-10-24T16:55:19.693Z,100182.56
2022-10-24T16:57:48.427Z,100173.41
2022-10-24T17:00:18.303Z,100167.38
2022-10-24T17:02:48.471Z,100170.47
2022-10-24T17:05:16.658Z,100167.13
2022-10-24T17:07:45.404Z,100180.94
2022-10-24T17:10:18.423Z,100169.44
2022-10-24T17:12:48.775Z,100178.47
2022-10-24T17:15:21.072Z,100177.66
2022-10-24T17:17:50.946Z,100174.81
2022-10-24T17:20:19.186Z,100169.53
2022-10-24T17:22:47.625Z,100171.06
2022-10-24T17:25:21.649Z,100174.69
2022-10-24T17:27:50.642Z,100170.69
2022-10-24T17:30:21.544Z,100185.09
2022-10-24T17:32:50.348Z,100171.66
2022-10-24T17:35:21.491Z,100192.19
2022-10-24T17:38:02.692Z,100190.25
2022-10-24T17:40:40.603Z,100197.34
2022-10-24T17:43:20.209Z,100190.09
2022-10-24T17:45:49.047Z,100194.13
2022-10-24T17:48:17.637Z,100206.88
2022-10-24T17:50:46.421Z,100205.03
2022-10-24T17:53:15.284Z,100201.72
2022-10-24T17:55:46.613Z,100208.94
2022-10-24T17:58:17.012Z,100215.41
2022-10-24T18:00:45.719Z,100224.69
2022-10-24T18:03:13.857Z,100209.75
2022-10-24T18:05:42.196Z,100212.22
2022-10-24T18:08:11.684Z,100213.41
2022-10-24T18:10:40.213Z,100209.75
2022-10-24T18:13:12.227Z,100204.63
2022-10-24T18:15:40.214Z,100220.25
2022-10-24T18:18:08.246Z,100220.84
2022-10-24T18:20:36.486Z,100219.75
2022-10-24T18:23:05.046Z,100222.81
2022-10-24T18:25:33.138Z,100222.22
2022-10-24T18:28:01.244Z,100229.53
2022-10-24T18:30:30.894Z,100235.09
2022-10-24T18:32:58.856Z,100236.44
2022-10-24T18:35:28.713Z,100240.47
2022-10-24T18:37:56.733Z,100245.44
2022-10-24T18:40:25.366Z,100246.66
2022-10-24T18:42:59.537Z,100245.28
2022-10-24T18:45:30.598Z,100246.41
2022-10-24T18:47:59.069Z,100246.75
2022-10-24T18:50:27.791Z,100249.63
2022-10-24T18:53:02.471Z,100248.19
2022-10-24T18:55:32.604Z,100252.59
2022-10-24T18:58:00.802Z,100259.75
2022-10-24T19:00:31.789Z,100263.94
2022-10-24T19:03:15.002Z,100257.22
2022-10-24T19:05:47.859Z,100257.69
2022-10-24T19:08:22.029Z,100255.16
2022-10-24T19:10:52.822Z,100261.63
2022-10-24T19:13:21.121Z,100257.28
2022-10-24T19:15:55.482Z,100256.44
2022-10-24T19:18:23.922Z,100258.25
2022-10-24T19:20:52.019Z,100254.75
2022-10-24T19:23:20.117Z,100248.97
2022-10-24T19:25:48.697Z,100239.09
2022-10-24T19:28:18.581Z,100243.41
2022-10-24T19:30:48.622Z,100257.38
2022-10-24T19:33:18.701Z,100252.22
2022-10-24T19:35:47.765Z,100257.44
2022-10-24T19:38:16.077Z,100258.28
2022-10-24T19:40:47.828Z,100266.19
2022-10-24T19:43:16.018Z,100262.53
2022-10-24T19:45:50.657Z,100260.06
2022-10-24T19:48:32.301Z,100259.75
2022-10-24T19:51:02.958Z,100261.91
2022-10-24T19:53:34.578Z,100259.16
2022-10-24T19:56:06.683Z,100272.44
2022-10-24T19:58:34.697Z,100263.09
2022-10-24T20:01:07.475Z,100271.03
2022-10-24T20:03:38.678Z,100278.25
2022-10-24T20:06:07.617Z,100274.16
2022-10-24T20:08:36.576Z,100270.47
2022-10-24T20:11:05.718Z,100268.00
2022-10-24T20:13:33.953Z,100279.25
2022-10-24T20:16:04.990Z,100286.78
2022-10-24T20:18:34.788Z,100296.00
2022-10-24T20:21:06.428Z,100301.28
2022-10-24T20:23:51.898Z,100299.66
2022-10-24T20:26:24.887Z,100280.56
2022-10-24T20:28:56.460Z,100303.06
2022-10-24T20:31:26.339Z,100304.28
2022-10-24T20:33:54.641Z,100302.13
2022-10-24T20:36:24.028Z,100297.28
2022-10-24T20:38:52.091Z,100307.81
2022-10-24T20:41:20.291Z,100308.88
2022-10-24T20:46:17.505Z,100311.47
2022-10-24T20:48:48.086Z,100303.97
2022-10-24T20:51:18.546Z,100307.19
2022-10-24T20:53:48.502Z,100311.34
2022-10-24T20:56:17.713Z,100314.03
2022-10-24T20:58:46.289Z,100313.09
2022-10-24T21:01:16.456Z,100313.59
2022-10-24T21:03:45.600Z,100315.44
2022-10-24T21:06:18.149Z,100311.81
2022-10-24T21:08:49.190Z,100322.00
2022-10-24T21:11:18.837Z,100311.91
2022-10-24T21:13:47.147Z,100319.63
2022-10-24T21:16:15.173Z,100306.94
2022-10-24T21:18:43.165Z,100322.84
2022-10-24T21:21:13.365Z,100312.13
2022-10-24T21:23:42.175Z,100303.31
2022-10-24T21:26:14.026Z,100337.09
2022-10-24T21:28:42.319Z,100329.47
2022-10-24T21:31:12.213Z,100327.09
2022-10-24T21:33:41.511Z,100332.69
2022-10-24T21:36:12.414Z,100326.38
2022-10-24T21:38:40.544Z,100329.50
2022-10-24T21:41:11.354Z,100329.72
2022-10-24T21:43:41.125Z,100344.53
2022-10-24T21:46:10.932Z,100328.84
2022-10-24T21:48:40.063Z,100332.31
2022-10-24T21:51:10.995Z,100339.59
2022-10-24T21:53:39.939Z,100336.72
2022-10-24T21:56:10.714Z,100338.41
2022-10-24T21:58:40.649Z,100342.72
2022-10-24T22:01:12.345Z,100336.84
2022-10-24T22:03:41.050Z,100342.19
2022-10-24T22:06:12.230Z,100345.53
2022-10-24T22:08:40.449Z,100332.63
2022-10-24T22:11:10.442Z,100354.44
2022-10-24T22:13:40.091Z,100360.66
2022-10-24T22:16:09.913Z,100364.19
2022-10-24T22:18:38.391Z,100351.22
2022-10-24T22:21:09.905Z,100370.44
2022-10-24T22:23:38.078Z,100372.44
2022-10-24T22:26:06.082Z,100374.59
2022-10-24T22:28:34.048Z,100368.69
2022-10-24T22:31:03.947Z,100375.44
2022-10-24T22:33:34.739Z,100383.38
2022-10-24T22:36:06.408Z,100388.00
2022-10-24T22:38:34.839Z,100371.38
2022-10-24T22:41:03.335Z,100377.59
2022-10-24T22:43:31.766Z,100372.13
2022-10-24T22:46:12.362Z,100378.56
2022-10-24T22:48:45.299Z,100375.03
2022-10-24T22:51:17.431Z,100380.25
2022-10-24T22:53:45.912Z,100363.00
2022-10-24T22:56:17.745Z,100381.25
2022-10-24T22:58:46.603Z,100380.19
2022-10-24T23:01:28.635Z,100384.69
2022-10-24T23:04:06.736Z,100378.88
2022-10-24T23:06:45.114Z,100392.59
2022-10-24T23:09:13.182Z,100391.72
2022-10-24T23:11:41.628Z,100397.50
2022-10-24T23:14:11.281Z,100392.72
2022-10-24T23:16:45.973Z,100393.13
2022-10-24T23:19:20.524Z,100390.66
2022-10-24T23:21:54.055Z,100387.63
2022-10-24T23:24:22.586Z,100399.44
2022-10-24T23:27:18.009Z,100404.59
2022-10-24T23:29:47.894Z,100408.81
2022-10-24T23:32:21.664Z,100401.63
2022-10-24T23:34:50.583Z,100409.13
2022-10-24T23:37:27.577Z,100405.69
2022-10-24T23:39:56.269Z,100413.75
2022-10-24T23:42:24.883Z,100407.31
2022-10-24T23:44:53.426Z,100412.09
2022-10-24T23:50:20.405Z,100404.72
2022-10-24T23:53:03.646Z,100415.56
2022-10-24T23:55:32.352Z,100418.66
2022-10-24T23:58:01.086Z,100415.16
